sensor_id;sensor_type;location;lat;lon;timestamp;P1;durP1;ratioP1;P2;durP2;ratioP2
53545;SDS011;39432;51.902;10.844;2023-12-07T00:00:58;17.63;;;12.43;;
53545;SDS011;39432;51.902;10.844;2023-12-07T00:03:48;14.80;;;10.82;;
53545;SDS011;39432;51.902;10.844;2023-12-07T00:06:38;15.50;;;11.18;;
53545;SDS011;39432;51.902;10.844;2023-12-07T00:09:31;17.63;;;11.52;;
53545;SDS011;39432;51.902;10.844;2023-12-07T00:12:21;17.15;;;12.25;;
53545;SDS011;39432;51.902;10.844;2023-12-07T00:15:12;15.77;;;11.68;;
53545;SDS011;39432;51.902;10.844;2023-12-07T00:18:02;17.27;;;11.70;;
53545;SDS011;39432;51.902;10.844;2023-12-07T00:20:53;15.88;;;10.98;;
53545;SDS011;39432;51.902;10.844;2023-12-07T00:23:43;15.20;;;11.52;;
53545;SDS011;39432;51.902;10.844;2023-12-07T00:26:35;15.73;;;10.82;;
53545;SDS011;39432;51.902;10.844;2023-12-07T00:29:26;16.30;;;10.88;;
53545;SDS011;39432;51.902;10.844;2023-12-07T00:32:17;14.88;;;10.75;;
53545;SDS011;39432;51.902;10.844;2023-12-07T00:35:07;14.27;;;10.70;;
53545;SDS011;39432;51.902;10.844;2023-12-07T00:37:58;15.50;;;11.05;;
53545;SDS011;39432;51.902;10.844;2023-12-07T00:40:48;15.55;;;11.20;;
53545;SDS011;39432;51.902;10.844;2023-12-07T00:43:41;17.17;;;12.25;;
53545;SDS011;39432;51.902;10.844;2023-12-07T00:46:31;20.40;;;11.40;;
53545;SDS011;39432;51.902;10.844;2023-12-07T00:49:21;17.02;;;11.43;;
53545;SDS011;39432;51.902;10.844;2023-12-07T00:52:11;15.60;;;11.20;;
53545;SDS011;39432;51.902;10.844;2023-12-07T00:55:01;15.52;;;12.35;;
53545;SDS011;39432;51.902;10.844;2023-12-07T00:57:58;14.95;;;10.75;;
53545;SDS011;39432;51.902;10.844;2023-12-07T01:00:51;18.45;;;11.98;;
53545;SDS011;39432;51.902;10.844;2023-12-07T01:03:42;16.55;;;12.15;;
53545;SDS011;39432;51.902;10.844;2023-12-07T01:06:32;16.08;;;12.13;;
53545;SDS011;39432;51.902;10.844;2023-12-07T01:09:22;15.68;;;12.05;;
53545;SDS011;39432;51.902;10.844;2023-12-07T01:12:12;16.67;;;11.52;;
53545;SDS011;39432;51.902;10.844;2023-12-07T01:15:03;15.15;;;10.73;;
53545;SDS011;39432;51.902;10.844;2023-12-07T01:17:57;17.60;;;11.40;;
53545;SDS011;39432;51.902;10.844;2023-12-07T01:20:47;17.55;;;12.90;;
53545;SDS011;39432;51.902;10.844;2023-12-07T01:23:37;17.13;;;12.20;;
53545;SDS011;39432;51.902;10.844;2023-12-07T01:26:30;16.05;;;10.80;;
53545;SDS011;39432;51.902;10.844;2023-12-07T01:29:21;17.15;;;13.07;;
53545;SDS011;39432;51.902;10.844;2023-12-07T01:32:11;21.45;;;13.65;;
53545;SDS011;39432;51.902;10.844;2023-12-07T01:35:04;18.13;;;12.18;;
53545;SDS011;39432;51.902;10.844;2023-12-07T01:37:55;20.08;;;12.75;;
53545;SDS011;39432;51.902;10.844;2023-12-07T01:40:45;17.50;;;12.75;;
53545;SDS011;39432;51.902;10.844;2023-12-07T01:43:36;16.45;;;11.95;;
53545;SDS011;39432;51.902;10.844;2023-12-07T01:46:26;19.30;;;12.23;;
53545;SDS011;39432;51.902;10.844;2023-12-07T01:49:16;18.58;;;12.00;;
53545;SDS011;39432;51.902;10.844;2023-12-07T01:52:09;16.33;;;12.00;;
53545;SDS011;39432;51.902;10.844;2023-12-07T01:55:00;15.95;;;12.15;;
53545;SDS011;39432;51.902;10.844;2023-12-07T01:57:51;15.60;;;11.95;;
53545;SDS011;39432;51.902;10.844;2023-12-07T02:00:41;19.38;;;12.00;;
53545;SDS011;39432;51.902;10.844;2023-12-07T02:03:31;19.00;;;12.02;;
53545;SDS011;39432;51.902;10.844;2023-12-07T02:06:22;18.50;;;13.32;;
53545;SDS011;39432;51.902;10.844;2023-12-07T02:09:14;16.50;;;11.82;;
53545;SDS011;39432;51.902;10.844;2023-12-07T02:12:05;17.58;;;13.25;;
53545;SDS011;39432;51.902;10.844;2023-12-07T02:14:55;17.52;;;12.52;;
53545;SDS011;39432;51.902;10.844;2023-12-07T02:17:48;16.40;;;12.35;;
53545;SDS011;39432;51.902;10.844;2023-12-07T02:20:44;17.60;;;12.15;;
53545;SDS011;39432;51.902;10.844;2023-12-07T02:23:39;17.40;;;12.73;;
53545;SDS011;39432;51.902;10.844;2023-12-07T02:26:40;20.25;;;13.05;;
53545;SDS011;39432;51.902;10.844;2023-12-07T02:29:31;17.50;;;12.77;;
53545;SDS011;39432;51.902;10.844;2023-12-07T02:32:21;18.52;;;12.50;;
53545;SDS011;39432;51.902;10.844;2023-12-07T02:35:12;16.73;;;11.77;;
53545;SDS011;39432;51.902;10.844;2023-12-07T02:38:02;17.20;;;13.00;;
53545;SDS011;39432;51.902;10.844;2023-12-07T02:40:54;17.25;;;12.43;;
53545;SDS011;39432;51.902;10.844;2023-12-07T02:43:49;18.88;;;12.98;;
53545;SDS011;39432;51.902;10.844;2023-12-07T02:46:39;15.80;;;11.70;;
53545;SDS011;39432;51.902;10.844;2023-12-07T02:49:30;16.25;;;12.30;;
53545;SDS011;39432;51.902;10.844;2023-12-07T02:52:20;19.25;;;12.32;;
53545;SDS011;39432;51.902;10.844;2023-12-07T02:55:11;18.92;;;13.98;;
53545;SDS011;39432;51.902;10.844;2023-12-07T02:58:01;16.98;;;12.38;;
53545;SDS011;39432;51.902;10.844;2023-12-07T03:00:56;15.10;;;11.40;;
53545;SDS011;39432;51.902;10.844;2023-12-07T03:03:47;17.52;;;12.73;;
53545;SDS011;39432;51.902;10.844;2023-12-07T03:06:37;17.58;;;12.40;;
53545;SDS011;39432;51.902;10.844;2023-12-07T03:09:27;18.38;;;12.27;;
53545;SDS011;39432;51.902;10.844;2023-12-07T03:12:17;16.52;;;13.27;;
53545;SDS011;39432;51.902;10.844;2023-12-07T03:15:08;16.40;;;12.60;;
53545;SDS011;39432;51.902;10.844;2023-12-07T03:18:03;19.00;;;12.55;;
53545;SDS011;39432;51.902;10.844;2023-12-07T03:20:54;15.18;;;11.85;;
53545;SDS011;39432;51.902;10.844;2023-12-07T03:23:44;18.52;;;13.32;;
53545;SDS011;39432;51.902;10.844;2023-12-07T03:26:34;18.10;;;11.65;;
53545;SDS011;39432;51.902;10.844;2023-12-07T03:29:25;15.27;;;11.95;;
53545;SDS011;39432;51.902;10.844;2023-12-07T03:32:15;15.50;;;11.48;;
53545;SDS011;39432;51.902;10.844;2023-12-07T03:35:08;16.25;;;12.05;;
53545;SDS011;39432;51.902;10.844;2023-12-07T03:37:58;16.33;;;11.10;;
53545;SDS011;39432;51.902;10.844;2023-12-07T03:40:49;14.90;;;10.90;;
53545;SDS011;39432;51.902;10.844;2023-12-07T03:43:39;15.02;;;11.68;;
53545;SDS011;39432;51.902;10.844;2023-12-07T03:46:29;14.82;;;11.00;;
53545;SDS011;39432;51.902;10.844;2023-12-07T03:49:19;15.68;;;11.90;;
53545;SDS011;39432;51.902;10.844;2023-12-07T03:52:12;15.05;;;11.70;;
53545;SDS011;39432;51.902;10.844;2023-12-07T03:55:03;16.15;;;11.75;;
53545;SDS011;39432;51.902;10.844;2023-12-07T03:57:53;14.98;;;11.23;;
53545;SDS011;39432;51.902;10.844;2023-12-07T04:00:44;14.73;;;10.82;;
53545;SDS011;39432;51.902;10.844;2023-12-07T04:03:34;13.55;;;10.05;;
53545;SDS011;39432;51.902;10.844;2023-12-07T04:06:24;13.52;;;9.45;;
53545;SDS011;39432;51.902;10.844;2023-12-07T04:09:17;13.75;;;10.35;;
53545;SDS011;39432;51.902;10.844;2023-12-07T04:12:07;14.20;;;10.43;;
53545;SDS011;39432;51.902;10.844;2023-12-07T04:14:57;12.52;;;9.80;;
53545;SDS011;39432;51.902;10.844;2023-12-07T04:17:48;14.27;;;9.82;;
53545;SDS011;39432;51.902;10.844;2023-12-07T04:20:38;13.27;;;9.13;;
53545;SDS011;39432;51.902;10.844;2023-12-07T04:23:28;12.43;;;9.25;;
53545;SDS011;39432;51.902;10.844;2023-12-07T04:26:21;13.35;;;8.77;;
53545;SDS011;39432;51.902;10.844;2023-12-07T04:29:11;11.60;;;7.90;;
53545;SDS011;39432;51.902;10.844;2023-12-07T04:32:01;12.30;;;8.07;;
53545;SDS011;39432;51.902;10.844;2023-12-07T04:34:52;11.88;;;7.78;;
53545;SDS011;39432;51.902;10.844;2023-12-07T04:37:42;12.57;;;7.75;;
53545;SDS011;39432;51.902;10.844;2023-12-07T04:40:33;13.55;;;8.10;;
53545;SDS011;39432;51.902;10.844;2023-12-07T04:43:27;11.05;;;7.40;;
53545;SDS011;39432;51.902;10.844;2023-12-07T04:46:17;11.82;;;7.50;;
53545;SDS011;39432;51.902;10.844;2023-12-07T04:49:07;11.68;;;8.40;;
53545;SDS011;39432;51.902;10.844;2023-12-07T04:51:58;13.13;;;9.02;;
53545;SDS011;39432;51.902;10.844;2023-12-07T04:54:48;12.25;;;7.55;;
53545;SDS011;39432;51.902;10.844;2023-12-07T04:57:39;10.82;;;8.68;;
53545;SDS011;39432;51.902;10.844;2023-12-07T05:00:31;11.60;;;8.95;;
53545;SDS011;39432;51.902;10.844;2023-12-07T05:03:22;12.68;;;9.88;;
53545;SDS011;39432;51.902;10.844;2023-12-07T05:06:12;12.25;;;9.43;;
53545;SDS011;39432;51.902;10.844;2023-12-07T05:09:02;10.80;;;8.25;;
53545;SDS011;39432;51.902;10.844;2023-12-07T05:11:52;12.60;;;8.82;;
53545;SDS011;39432;51.902;10.844;2023-12-07T05:14:42;10.63;;;7.90;;
53545;SDS011;39432;51.902;10.844;2023-12-07T05:17:36;12.32;;;8.75;;
53545;SDS011;39432;51.902;10.844;2023-12-07T05:20:27;12.98;;;8.07;;
53545;SDS011;39432;51.902;10.844;2023-12-07T05:23:17;10.90;;;7.70;;
53545;SDS011;39432;51.902;10.844;2023-12-07T05:26:07;12.50;;;7.45;;
53545;SDS011;39432;51.902;10.844;2023-12-07T05:28:58;11.73;;;8.02;;
53545;SDS011;39432;51.902;10.844;2023-12-07T05:31:48;10.18;;;7.57;;
53545;SDS011;39432;51.902;10.844;2023-12-07T05:34:41;13.13;;;7.80;;
53545;SDS011;39432;51.902;10.844;2023-12-07T05:37:31;9.30;;;6.70;;
53545;SDS011;39432;51.902;10.844;2023-12-07T05:40:21;10.65;;;7.35;;
53545;SDS011;39432;51.902;10.844;2023-12-07T05:43:12;8.75;;;7.35;;
53545;SDS011;39432;51.902;10.844;2023-12-07T05:46:06;10.70;;;7.72;;
53545;SDS011;39432;51.902;10.844;2023-12-07T05:48:56;13.30;;;7.72;;
53545;SDS011;39432;51.902;10.844;2023-12-07T05:51:49;12.40;;;7.43;;
53545;SDS011;39432;51.902;10.844;2023-12-07T05:54:40;12.00;;;7.55;;
53545;SDS011;39432;51.902;10.844;2023-12-07T05:57:33;11.73;;;7.97;;
53545;SDS011;39432;51.902;10.844;2023-12-07T06:00:24;11.38;;;7.43;;
53545;SDS011;39432;51.902;10.844;2023-12-07T06:03:14;12.00;;;8.88;;
53545;SDS011;39432;51.902;10.844;2023-12-07T06:06:05;12.35;;;7.90;;
53545;SDS011;39432;51.902;10.844;2023-12-07T06:09:00;11.88;;;8.27;;
53545;SDS011;39432;51.902;10.844;2023-12-07T06:11:50;9.68;;;7.70;;
53545;SDS011;39432;51.902;10.844;2023-12-07T06:14:40;9.98;;;7.95;;
53545;SDS011;39432;51.902;10.844;2023-12-07T06:17:30;11.60;;;7.68;;
53545;SDS011;39432;51.902;10.844;2023-12-07T06:20:21;10.95;;;7.75;;
53545;SDS011;39432;51.902;10.844;2023-12-07T06:23:11;11.05;;;8.02;;
53545;SDS011;39432;51.902;10.844;2023-12-07T06:26:04;10.35;;;7.70;;
53545;SDS011;39432;51.902;10.844;2023-12-07T06:28:54;12.30;;;8.80;;
53545;SDS011;39432;51.902;10.844;2023-12-07T06:31:44;11.25;;;8.05;;
53545;SDS011;39432;51.902;10.844;2023-12-07T06:34:39;11.70;;;8.15;;
53545;SDS011;39432;51.902;10.844;2023-12-07T06:37:29;11.35;;;8.25;;
53545;SDS011;39432;51.902;10.844;2023-12-07T06:40:19;12.15;;;7.63;;
53545;SDS011;39432;51.902;10.844;2023-12-07T06:43:12;14.70;;;9.38;;
53545;SDS011;39432;51.902;10.844;2023-12-07T06:46:03;12.73;;;8.77;;
53545;SDS011;39432;51.902;10.844;2023-12-07T06:48:54;12.35;;;8.88;;
53545;SDS011;39432;51.902;10.844;2023-12-07T06:51:44;12.32;;;8.70;;
53545;SDS011;39432;51.902;10.844;2023-12-07T06:54:34;12.93;;;9.20;;
53545;SDS011;39432;51.902;10.844;2023-12-07T06:57:25;15.30;;;9.57;;
53545;SDS011;39432;51.902;10.844;2023-12-07T07:00:18;11.38;;;8.38;;
53545;SDS011;39432;51.902;10.844;2023-12-07T07:03:08;13.32;;;9.77;;
53545;SDS011;39432;51.902;10.844;2023-12-07T07:05:58;17.83;;;10.40;;
53545;SDS011;39432;51.902;10.844;2023-12-07T07:08:49;12.48;;;9.50;;
53545;SDS011;39432;51.902;10.844;2023-12-07T07:11:39;18.10;;;10.85;;
53545;SDS011;39432;51.902;10.844;2023-12-07T07:14:29;19.15;;;13.20;;
53545;SDS011;39432;51.902;10.844;2023-12-07T07:17:22;30.23;;;16.13;;
53545;SDS011;39432;51.902;10.844;2023-12-07T07:20:13;19.20;;;13.25;;
53545;SDS011;39432;51.902;10.844;2023-12-07T07:23:04;22.08;;;12.45;;
53545;SDS011;39432;51.902;10.844;2023-12-07T07:25:55;17.13;;;12.30;;
53545;SDS011;39432;51.902;10.844;2023-12-07T07:28:45;20.13;;;12.75;;
53545;SDS011;39432;51.902;10.844;2023-12-07T07:31:35;17.13;;;11.65;;
53545;SDS011;39432;51.902;10.844;2023-12-07T07:34:29;18.33;;;12.10;;
53545;SDS011;39432;51.902;10.844;2023-12-07T07:37:19;20.02;;;12.52;;
53545;SDS011;39432;51.902;10.844;2023-12-07T07:40:10;21.77;;;12.38;;
53545;SDS011;39432;51.902;10.844;2023-12-07T07:43:01;17.15;;;12.35;;
53545;SDS011;39432;51.902;10.844;2023-12-07T07:45:52;20.80;;;12.48;;
53545;SDS011;39432;51.902;10.844;2023-12-07T07:48:42;20.33;;;13.30;;
53545;SDS011;39432;51.902;10.844;2023-12-07T07:51:35;21.30;;;13.98;;
53545;SDS011;39432;51.902;10.844;2023-12-07T07:54:25;17.58;;;12.32;;
53545;SDS011;39432;51.902;10.844;2023-12-07T07:57:16;17.90;;;11.88;;
53545;SDS011;39432;51.902;10.844;2023-12-07T08:00:07;20.05;;;11.88;;
53545;SDS011;39432;51.902;10.844;2023-12-07T08:03:00;14.57;;;9.85;;
53545;SDS011;39432;51.902;10.844;2023-12-07T08:05:50;13.20;;;10.10;;
53545;SDS011;39432;51.902;10.844;2023-12-07T08:08:44;16.40;;;10.13;;
53545;SDS011;39432;51.902;10.844;2023-12-07T08:11:35;14.15;;;9.82;;
53545;SDS011;39432;51.902;10.844;2023-12-07T08:14:25;13.75;;;9.20;;
53545;SDS011;39432;51.902;10.844;2023-12-07T08:17:15;11.73;;;8.70;;
53545;SDS011;39432;51.902;10.844;2023-12-07T08:20:07;13.20;;;8.68;;
53545;SDS011;39432;51.902;10.844;2023-12-07T08:22:59;11.20;;;8.13;;
53545;SDS011;39432;51.902;10.844;2023-12-07T08:25:52;11.88;;;7.70;;
53545;SDS011;39432;51.902;10.844;2023-12-07T08:28:44;10.35;;;7.45;;
53545;SDS011;39432;51.902;10.844;2023-12-07T08:31:34;9.95;;;7.50;;
53545;SDS011;39432;51.902;10.844;2023-12-07T08:34:26;10.65;;;7.47;;
53545;SDS011;39432;51.902;10.844;2023-12-07T08:37:16;12.23;;;8.20;;
53545;SDS011;39432;51.902;10.844;2023-12-07T08:40:07;12.23;;;8.00;;
53545;SDS011;39432;51.902;10.844;2023-12-07T08:43:05;12.13;;;7.68;;
53545;SDS011;39432;51.902;10.844;2023-12-07T08:45:55;10.18;;;8.25;;
53545;SDS011;39432;51.902;10.844;2023-12-07T08:48:47;11.15;;;7.95;;
53545;SDS011;39432;51.902;10.844;2023-12-07T08:51:38;11.35;;;7.75;;
53545;SDS011;39432;51.902;10.844;2023-12-07T08:54:49;12.18;;;8.13;;
53545;SDS011;39432;51.902;10.844;2023-12-07T08:57:39;12.85;;;8.93;;
53545;SDS011;39432;51.902;10.844;2023-12-07T09:00:32;13.52;;;9.30;;
53545;SDS011;39432;51.902;10.844;2023-12-07T09:03:23;13.82;;;9.98;;
53545;SDS011;39432;51.902;10.844;2023-12-07T09:06:19;25.25;;;19.08;;
53545;SDS011;39432;51.902;10.844;2023-12-07T09:09:09;22.85;;;15.15;;
53545;SDS011;39432;51.902;10.844;2023-12-07T09:12:00;18.00;;;12.73;;
53545;SDS011;39432;51.902;10.844;2023-12-07T09:14:50;17.98;;;12.60;;
53545;SDS011;39432;51.902;10.844;2023-12-07T09:17:42;13.05;;;9.98;;
53545;SDS011;39432;51.902;10.844;2023-12-07T09:20:33;11.65;;;8.52;;
53545;SDS011;39432;51.902;10.844;2023-12-07T09:23:23;9.77;;;7.68;;
53545;SDS011;39432;51.902;10.844;2023-12-07T09:26:13;10.05;;;6.85;;
53545;SDS011;39432;51.902;10.844;2023-12-07T09:29:04;10.15;;;7.30;;
53545;SDS011;39432;51.902;10.844;2023-12-07T09:31:55;11.57;;;7.25;;
53545;SDS011;39432;51.902;10.844;2023-12-07T09:34:48;11.10;;;7.20;;
53545;SDS011;39432;51.902;10.844;2023-12-07T09:37:40;10.43;;;6.43;;
53545;SDS011;39432;51.902;10.844;2023-12-07T09:40:31;7.75;;;5.55;;
53545;SDS011;39432;51.902;10.844;2023-12-07T09:43:22;7.82;;;6.00;;
53545;SDS011;39432;51.902;10.844;2023-12-07T09:46:12;7.65;;;5.20;;
53545;SDS011;39432;51.902;10.844;2023-12-07T09:49:03;6.53;;;4.90;;
53545;SDS011;39432;51.902;10.844;2023-12-07T09:51:56;9.82;;;5.30;;
53545;SDS011;39432;51.902;10.844;2023-12-07T09:54:48;8.02;;;5.68;;
53545;SDS011;39432;51.902;10.844;2023-12-07T09:57:41;10.18;;;5.80;;
53545;SDS011;39432;51.902;10.844;2023-12-07T10:00:31;8.45;;;5.75;;
53545;SDS011;39432;51.902;10.844;2023-12-07T10:03:23;13.20;;;5.88;;
53545;SDS011;39432;51.902;10.844;2023-12-07T10:06:13;9.60;;;6.05;;
53545;SDS011;39432;51.902;10.844;2023-12-07T10:09:06;8.13;;;5.97;;
53545;SDS011;39432;51.902;10.844;2023-12-07T10:12:06;10.90;;;6.28;;
53545;SDS011;39432;51.902;10.844;2023-12-07T10:14:57;11.70;;;5.60;;
53545;SDS011;39432;51.902;10.844;2023-12-07T10:17:48;8.80;;;5.40;;
53545;SDS011;39432;51.902;10.844;2023-12-07T10:20:40;6.28;;;4.78;;
53545;SDS011;39432;51.902;10.844;2023-12-07T10:23:36;5.83;;;3.27;;
53545;SDS011;39432;51.902;10.844;2023-12-07T10:26:29;5.22;;;4.25;;
53545;SDS011;39432;51.902;10.844;2023-12-07T10:29:23;8.57;;;4.60;;
53545;SDS011;39432;51.902;10.844;2023-12-07T10:32:21;3.95;;;3.00;;
53545;SDS011;39432;51.902;10.844;2023-12-07T10:35:11;6.50;;;4.30;;
53545;SDS011;39432;51.902;10.844;2023-12-07T10:38:01;5.75;;;3.78;;
53545;SDS011;39432;51.902;10.844;2023-12-07T10:40:57;6.22;;;4.47;;
53545;SDS011;39432;51.902;10.844;2023-12-07T10:43:57;6.97;;;4.00;;
53545;SDS011;39432;51.902;10.844;2023-12-07T10:46:50;7.60;;;5.03;;
53545;SDS011;39432;51.902;10.844;2023-12-07T10:49:42;7.28;;;4.72;;
53545;SDS011;39432;51.902;10.844;2023-12-07T10:52:34;5.50;;;4.25;;
53545;SDS011;39432;51.902;10.844;2023-12-07T10:55:27;5.80;;;4.15;;
53545;SDS011;39432;51.902;10.844;2023-12-07T10:58:18;6.60;;;4.05;;
53545;SDS011;39432;51.902;10.844;2023-12-07T11:01:12;6.70;;;4.55;;
53545;SDS011;39432;51.902;10.844;2023-12-07T11:04:04;8.20;;;5.25;;
53545;SDS011;39432;51.902;10.844;2023-12-07T11:06:56;8.35;;;4.47;;
53545;SDS011;39432;51.902;10.844;2023-12-07T11:09:57;7.18;;;4.70;;
53545;SDS011;39432;51.902;10.844;2023-12-07T11:12:54;6.70;;;4.45;;
53545;SDS011;39432;51.902;10.844;2023-12-07T11:18:42;7.85;;;4.88;;
53545;SDS011;39432;51.902;10.844;2023-12-07T11:21:32;6.63;;;4.43;;
53545;SDS011;39432;51.902;10.844;2023-12-07T11:24:24;7.70;;;4.50;;
53545;SDS011;39432;51.902;10.844;2023-12-07T11:27:14;5.95;;;4.00;;
53545;SDS011;39432;51.902;10.844;2023-12-07T11:30:04;4.72;;;3.05;;
53545;SDS011;39432;51.902;10.844;2023-12-07T11:32:56;5.63;;;3.65;;
53545;SDS011;39432;51.902;10.844;2023-12-07T11:39:15;4.60;;;3.13;;
53545;SDS011;39432;51.902;10.844;2023-12-07T11:42:15;4.32;;;2.92;;
53545;SDS011;39432;51.902;10.844;2023-12-07T11:45:09;5.13;;;3.28;;
53545;SDS011;39432;51.902;10.844;2023-12-07T11:48:06;4.93;;;2.85;;
53545;SDS011;39432;51.902;10.844;2023-12-07T11:51:01;4.60;;;2.90;;
53545;SDS011;39432;51.902;10.844;2023-12-07T11:53:55;5.07;;;2.85;;
53545;SDS011;39432;51.902;10.844;2023-12-07T11:56:45;4.15;;;2.70;;
53545;SDS011;39432;51.902;10.844;2023-12-07T11:59:35;3.30;;;2.30;;
53545;SDS011;39432;51.902;10.844;2023-12-07T12:02:25;4.40;;;2.40;;
53545;SDS011;39432;51.902;10.844;2023-12-07T12:05:16;3.83;;;2.15;;
53545;SDS011;39432;51.902;10.844;2023-12-07T12:08:06;2.88;;;2.13;;
53545;SDS011;39432;51.902;10.844;2023-12-07T12:10:59;3.60;;;2.60;;
53545;SDS011;39432;51.902;10.844;2023-12-07T12:13:49;3.35;;;2.10;;
53545;SDS011;39432;51.902;10.844;2023-12-07T12:16:40;3.42;;;2.17;;
53545;SDS011;39432;51.902;10.844;2023-12-07T12:19:30;3.97;;;2.58;;
53545;SDS011;39432;51.902;10.844;2023-12-07T12:22:23;4.85;;;2.30;;
53545;SDS011;39432;51.902;10.844;2023-12-07T12:25:13;4.65;;;2.50;;
53545;SDS011;39432;51.902;10.844;2023-12-07T12:28:07;6.47;;;2.92;;
53545;SDS011;39432;51.902;10.844;2023-12-07T12:30:57;5.13;;;3.00;;
53545;SDS011;39432;51.902;10.844;2023-12-07T12:33:48;9.38;;;2.78;;
53545;SDS011;39432;51.902;10.844;2023-12-07T12:36:38;9.15;;;2.80;;
53545;SDS011;39432;51.902;10.844;2023-12-07T12:39:29;7.10;;;2.40;;
53545;SDS011;39432;51.902;10.844;2023-12-07T12:42:21;3.13;;;2.03;;
53545;SDS011;39432;51.902;10.844;2023-12-07T12:45:14;4.85;;;2.42;;
53545;SDS011;39432;51.902;10.844;2023-12-07T12:48:05;6.80;;;3.55;;
53545;SDS011;39432;51.902;10.844;2023-12-07T12:50:56;8.20;;;2.75;;
53545;SDS011;39432;51.902;10.844;2023-12-07T12:53:47;6.47;;;2.67;;
53545;SDS011;39432;51.902;10.844;2023-12-07T12:56:38;10.32;;;2.55;;
53545;SDS011;39432;51.902;10.844;2023-12-07T12:59:28;3.33;;;2.05;;
53545;SDS011;39432;51.902;10.844;2023-12-07T13:02:22;3.47;;;2.08;;
53545;SDS011;39432;51.902;10.844;2023-12-07T13:05:12;3.50;;;2.13;;
53545;SDS011;39432;51.902;10.844;2023-12-07T13:08:02;8.90;;;2.67;;
53545;SDS011;39432;51.902;10.844;2023-12-07T13:11:00;6.10;;;2.10;;
53545;SDS011;39432;51.902;10.844;2023-12-07T13:13:50;5.50;;;1.63;;
53545;SDS011;39432;51.902;10.844;2023-12-07T13:16:41;9.13;;;2.08;;
53545;SDS011;39432;51.902;10.844;2023-12-07T13:19:34;10.18;;;4.15;;
53545;SDS011;39432;51.902;10.844;2023-12-07T13:22:24;6.20;;;2.67;;
53545;SDS011;39432;51.902;10.844;2023-12-07T13:25:15;5.53;;;2.10;;
53545;SDS011;39432;51.902;10.844;2023-12-07T13:28:05;17.58;;;2.53;;
53545;SDS011;39432;51.902;10.844;2023-12-07T13:30:56;5.45;;;1.40;;
53545;SDS011;39432;51.902;10.844;2023-12-07T13:33:46;10.45;;;1.88;;
53545;SDS011;39432;51.902;10.844;2023-12-07T13:36:45;15.38;;;2.42;;
53545;SDS011;39432;51.902;10.844;2023-12-07T13:39:36;4.03;;;1.83;;
53545;SDS011;39432;51.902;10.844;2023-12-07T13:42:27;9.32;;;2.60;;
53545;SDS011;39432;51.902;10.844;2023-12-07T13:45:17;3.08;;;1.75;;
53545;SDS011;39432;51.902;10.844;2023-12-07T13:48:08;2.67;;;1.70;;
53545;SDS011;39432;51.902;10.844;2023-12-07T13:51:00;4.32;;;1.73;;
53545;SDS011;39432;51.902;10.844;2023-12-07T13:53:54;12.18;;;3.03;;
53545;SDS011;39432;51.902;10.844;2023-12-07T13:56:47;5.80;;;2.17;;
53545;SDS011;39432;51.902;10.844;2023-12-07T13:59:37;4.70;;;1.75;;
53545;SDS011;39432;51.902;10.844;2023-12-07T14:02:28;2.60;;;1.20;;
53545;SDS011;39432;51.902;10.844;2023-12-07T14:05:18;3.55;;;1.80;;
53545;SDS011;39432;51.902;10.844;2023-12-07T14:08:10;10.07;;;6.10;;
53545;SDS011;39432;51.902;10.844;2023-12-07T14:11:02;18.63;;;10.65;;
53545;SDS011;39432;51.902;10.844;2023-12-07T14:13:53;10.10;;;4.15;;
53545;SDS011;39432;51.902;10.844;2023-12-07T14:16:43;5.07;;;2.25;;
53545;SDS011;39432;51.902;10.844;2023-12-07T14:19:53;2.90;;;1.80;;
53545;SDS011;39432;51.902;10.844;2023-12-07T14:23:03;6.57;;;2.50;;
53545;SDS011;39432;51.902;10.844;2023-12-07T14:25:54;8.00;;;2.17;;
53545;SDS011;39432;51.902;10.844;2023-12-07T14:28:52;4.53;;;1.98;;
53545;SDS011;39432;51.902;10.844;2023-12-07T14:31:42;5.20;;;2.60;;
53545;SDS011;39432;51.902;10.844;2023-12-07T14:34:32;4.57;;;2.45;;
53545;SDS011;39432;51.902;10.844;2023-12-07T14:37:23;6.28;;;2.40;;
53545;SDS011;39432;51.902;10.844;2023-12-07T14:40:15;7.22;;;2.42;;
53545;SDS011;39432;51.902;10.844;2023-12-07T14:43:06;4.53;;;1.95;;
53545;SDS011;39432;51.902;10.844;2023-12-07T14:45:59;5.93;;;2.30;;
53545;SDS011;39432;51.902;10.844;2023-12-07T14:48:49;7.45;;;1.95;;
53545;SDS011;39432;51.902;10.844;2023-12-07T14:51:39;9.35;;;2.22;;
53545;SDS011;39432;51.902;10.844;2023-12-07T14:54:30;5.88;;;1.92;;
53545;SDS011;39432;51.902;10.844;2023-12-07T14:57:20;8.95;;;1.80;;
53545;SDS011;39432;51.902;10.844;2023-12-07T15:00:11;5.63;;;1.95;;
53545;SDS011;39432;51.902;10.844;2023-12-07T15:03:04;8.63;;;4.30;;
53545;SDS011;39432;51.902;10.844;2023-12-07T15:05:55;26.25;;;2.78;;
53545;SDS011;39432;51.902;10.844;2023-12-07T15:08:46;4.22;;;1.85;;
53545;SDS011;39432;51.902;10.844;2023-12-07T15:11:36;12.50;;;2.40;;
53545;SDS011;39432;51.902;10.844;2023-12-07T15:14:26;2.88;;;1.60;;
53545;SDS011;39432;51.902;10.844;2023-12-07T15:17:24;4.28;;;1.65;;
53545;SDS011;39432;51.902;10.844;2023-12-07T15:20:18;10.20;;;2.13;;
53545;SDS011;39432;51.902;10.844;2023-12-07T15:23:08;6.03;;;2.00;;
53545;SDS011;39432;51.902;10.844;2023-12-07T15:25:58;3.80;;;1.95;;
53545;SDS011;39432;51.902;10.844;2023-12-07T15:28:50;8.98;;;1.30;;
53545;SDS011;39432;51.902;10.844;2023-12-07T15:31:40;8.98;;;1.70;;
53545;SDS011;39432;51.902;10.844;2023-12-07T15:34:30;7.00;;;1.38;;
53545;SDS011;39432;51.902;10.844;2023-12-07T15:37:29;5.20;;;1.20;;
53545;SDS011;39432;51.902;10.844;2023-12-07T15:40:19;4.20;;;2.00;;
53545;SDS011;39432;51.902;10.844;2023-12-07T15:43:09;6.45;;;1.52;;
53545;SDS011;39432;51.902;10.844;2023-12-07T15:46:00;10.63;;;2.10;;
53545;SDS011;39432;51.902;10.844;2023-12-07T15:48:50;3.38;;;1.35;;
53545;SDS011;39432;51.902;10.844;2023-12-07T15:51:41;8.13;;;3.83;;
53545;SDS011;39432;51.902;10.844;2023-12-07T15:54:34;4.95;;;1.92;;
53545;SDS011;39432;51.902;10.844;2023-12-07T15:57:27;6.10;;;2.13;;
53545;SDS011;39432;51.902;10.844;2023-12-07T16:00:18;14.55;;;2.28;;
53545;SDS011;39432;51.902;10.844;2023-12-07T16:03:08;3.55;;;1.85;;
53545;SDS011;39432;51.902;10.844;2023-12-07T16:05:58;6.03;;;2.40;;
53545;SDS011;39432;51.902;10.844;2023-12-07T16:08:49;7.75;;;2.03;;
53545;SDS011;39432;51.902;10.844;2023-12-07T16:11:41;10.63;;;2.47;;
53545;SDS011;39432;51.902;10.844;2023-12-07T16:14:31;11.88;;;2.80;;
53545;SDS011;39432;51.902;10.844;2023-12-07T16:17:22;14.63;;;2.65;;
53545;SDS011;39432;51.902;10.844;2023-12-07T16:20:12;8.13;;;3.10;;
53545;SDS011;39432;51.902;10.844;2023-12-07T16:23:03;16.63;;;3.35;;
53545;SDS011;39432;51.902;10.844;2023-12-07T16:25:53;8.77;;;2.95;;
53545;SDS011;39432;51.902;10.844;2023-12-07T16:28:46;7.13;;;2.92;;
53545;SDS011;39432;51.902;10.844;2023-12-07T16:31:36;7.82;;;2.47;;
53545;SDS011;39432;51.902;10.844;2023-12-07T16:34:26;9.20;;;2.70;;
53545;SDS011;39432;51.902;10.844;2023-12-07T16:37:17;18.40;;;2.70;;
53545;SDS011;39432;51.902;10.844;2023-12-07T16:40:07;9.75;;;6.97;;
53545;SDS011;39432;51.902;10.844;2023-12-07T16:42:58;16.48;;;8.30;;
53545;SDS011;39432;51.902;10.844;2023-12-07T16:45:51;13.88;;;8.77;;
53545;SDS011;39432;51.902;10.844;2023-12-07T16:48:41;32.63;;;17.42;;